Time;durP1;ratioP1;P1;durP2;ratioP2;P2;SDS_P1;SDS_P2;PMS_P1;PMS_P2;Temp;Humidity;BMP_temperature;BMP_pressure;BME280_temperature;BME280_humidity;BME280_pressure;Samples;Min_cycle;Max_cycle;Signal;HPM_P1;HPM_P2
2024/02/05 00:02:02;;;;;;;1.97;1.20;;;21.20;73.50;;;;;;4808410;28;20622;-67
2024/02/05 00:04:36;;;;;;;2.20;1.30;;;21.20;73.60;;;;;;4807979;28;26424;-65
2024/02/05 00:07:04;;;;;;;1.57;1.30;;;21.20;73.70;;;;;;4810341;28;20590;-65
2024/02/05 00:09:47;;;;;;;1.50;1.20;;;21.20;73.60;;;;;;4806920;28;20606;-67
2024/02/05 00:12:18;;;;;;;1.50;1.30;;;21.20;73.60;;;;;;4806370;28;21107;-65
2024/02/05 00:14:50;;;;;;;1.30;1.20;;;21.20;73.70;;;;;;4805061;28;20472;-65
2024/02/05 00:17:17;;;;;;;1.70;1.60;;;21.10;73.60;;;;;;4803547;28;21056;-66
2024/02/05 00:19:50;;;;;;;1.73;1.30;;;21.20;74.50;;;;;;4806695;28;21156;-63
2024/02/05 00:22:26;;;;;;;1.50;1.20;;;21.10;73.70;;;;;;4806210;28;20492;-65
2024/02/05 00:24:59;;;;;;;1.20;1.10;;;21.10;73.60;;;;;;4803582;28;20563;-65
2024/02/05 00:27:32;;;;;;;1.57;1.40;;;21.10;73.60;;;;;;4805056;28;20480;-65
2024/02/05 00:30:00;;;;;;;3.50;1.70;;;21.10;73.60;;;;;;4804038;28;20464;-65
2024/02/05 00:32:31;;;;;;;1.50;1.27;;;21.10;74.60;;;;;;4806016;28;21667;-65
2024/02/05 00:35:03;;;;;;;1.80;1.20;;;21.00;73.60;;;;;;4801502;28;21019;-63
2024/02/05 00:37:30;;;;;;;1.40;1.30;;;21.00;73.50;;;;;;4804048;28;26003;-64
2024/02/05 00:40:04;;;;;;;1.57;1.20;;;21.00;73.60;;;;;;4801760;28;20606;-65
2024/02/05 00:42:36;;;;;;;1.40;1.30;;;21.00;73.40;;;;;;4802310;28;21172;-64
2024/02/05 00:45:12;;;;;;;1.40;1.20;;;21.00;73.50;;;;;;4804868;28;20610;-64
2024/02/05 00:47:44;;;;;;;1.70;1.13;;;21.00;73.50;;;;;;4808202;28;20471;-63
2024/02/05 00:50:15;;;;;;;2.03;1.27;;;21.00;73.70;;;;;;4807149;28;20799;-65
2024/02/05 00:52:49;;;;;;;1.67;1.57;;;20.90;73.50;;;;;;4806284;28;21611;-62
2024/02/05 00:55:21;;;;;;;1.88;1.45;;;20.90;73.50;;;;;;4804374;28;20463;-64
2024/02/05 00:57:58;;;;;;;1.43;1.20;;;20.90;73.50;;;;;;4799777;28;20201;-64
2024/02/05 01:00:28;;;;;;;1.27;1.17;;;20.90;73.50;;;;;;4802966;28;20584;-65
2024/02/05 01:02:59;;;;;;;1.40;1.20;;;20.90;73.60;;;;;;4805229;28;20999;-65
2024/02/05 01:05:36;;;;;;;1.20;1.07;;;20.90;73.40;;;;;;4802554;28;20456;-65
2024/02/05 01:08:13;;;;;;;1.87;1.17;;;20.90;73.70;;;;;;4806147;28;21222;-65
2024/02/05 01:10:43;;;;;;;1.70;1.43;;;20.80;73.50;;;;;;4805275;28;20468;-66
2024/02/05 01:13:25;;;;;;;1.45;1.23;;;20.80;73.50;;;;;;4809428;28;21058;-65
2024/02/05 01:16:02;;;;;;;1.40;1.30;;;20.80;73.40;;;;;;4807493;28;20831;-64
2024/02/05 01:18:40;;;;;;;1.40;1.30;;;20.80;73.60;;;;;;4805684;28;20471;-65
2024/02/05 01:21:12;;;;;;;1.20;1.10;;;20.80;73.40;;;;;;4803131;28;20861;-66
2024/02/05 01:23:43;;;;;;;2.40;1.40;;;20.80;73.40;;;;;;4808133;28;20919;-66
2024/02/05 01:26:18;;;;;;;1.27;1.17;;;20.80;73.60;;;;;;4802356;28;20495;-63
2024/02/05 01:28:49;;;;;;;1.50;1.40;;;20.70;73.50;;;;;;4808633;28;21468;-64
2024/02/05 01:31:20;;;;;;;1.50;1.20;;;20.70;73.50;;;;;;4800864;28;20205;-66
2024/02/05 01:33:54;;;;;;;1.70;1.43;;;20.70;73.40;;;;;;4794703;28;20216;-67
2024/02/05 01:36:26;;;;;;;2.60;1.13;;;20.70;73.70;;;;;;4806493;28;20468;-65
2024/02/05 01:39:02;;;;;;;1.47;1.33;;;20.70;73.70;;;;;;4806857;28;20472;-64
2024/02/05 01:41:32;;;;;;;1.58;1.13;;;20.70;73.30;;;;;;4804577;28;20975;-65
2024/02/05 01:44:05;;;;;;;1.58;1.45;;;20.70;73.50;;;;;;4803744;28;20617;-63
2024/02/05 01:46:35;;;;;;;1.45;1.35;;;20.70;73.50;;;;;;4787777;28;20197;-66
2024/02/05 01:49:07;;;;;;;3.20;1.40;;;20.60;73.60;;;;;;4793671;28;20484;-67
2024/02/05 01:51:40;;;;;;;1.15;1.00;;;20.60;73.70;;;;;;4806024;28;20878;-66
2024/02/05 01:54:18;;;;;;;1.93;1.20;;;20.60;73.80;;;;;;4807303;28;20201;-65
2024/02/05 01:56:49;;;;;;;1.20;1.10;;;20.60;73.60;;;;;;4803290;28;21102;-63
2024/02/05 01:59:35;;;;;;;;;;;;;;;;;;;;;
2024/02/05 02:02:07;;;;;;;1.10;1.00;;;20.60;73.70;;;;;;4802545;28;20480;-66
2024/02/05 02:04:49;;;;;;;1.35;1.25;;;20.60;73.70;;;;;;4793832;28;21008;-66
2024/02/05 02:07:33;;;;;;;1.43;1.33;;;20.60;73.70;;;;;;4804538;28;25933;-62
2024/02/05 02:10:07;;;;;;;1.30;1.00;;;20.60;73.60;;;;;;4805387;28;26134;-64
2024/02/05 02:12:36;;;;;;;2.25;1.40;;;20.60;73.50;;;;;;4804214;28;26104;-65
2024/02/05 02:15:12;;;;;;;1.43;1.20;;;20.60;73.60;;;;;;4808728;28;20200;-65
2024/02/05 02:17:49;;;;;;;1.40;1.30;;;20.60;74.30;;;;;;4804145;28;20502;-65
2024/02/05 02:20:19;;;;;;;1.30;1.20;;;20.60;73.70;;;;;;4805868;28;20463;-63
2024/02/05 02:23:02;;;;;;;1.60;1.50;;;20.60;73.60;;;;;;4801616;28;20476;-65
2024/02/05 02:25:31;;;;;;;1.30;1.00;;;20.60;73.70;;;;;;4801661;28;20464;-66
2024/02/05 02:28:05;;;;;;;1.38;1.25;;;20.60;73.60;;;;;;4805171;28;26256;-66
2024/02/05 02:30:38;;;;;;;1.70;1.40;;;20.50;73.40;;;;;;4809221;28;20211;-64
2024/02/05 02:33:26;;;;;;;1.93;1.13;;;20.50;73.60;;;;;;4799305;28;20684;-67
2024/02/05 02:36:06;;;;;;;1.10;1.00;;;20.50;73.70;;;;;;4807451;28;20468;-67
2024/02/05 02:38:51;;;;;;;1.27;1.17;;;20.50;73.70;;;;;;4805435;28;20974;-63
2024/02/05 02:41:42;;;;;;;1.20;1.10;;;20.50;73.60;;;;;;4801827;28;20201;-67
2024/02/05 02:44:20;;;;;;;1.70;1.60;;;20.50;73.60;;;;;;4807212;28;21486;-66
2024/02/05 02:46:51;;;;;;;1.33;1.10;;;20.50;73.50;;;;;;4802075;28;26114;-66
2024/02/05 02:49:22;;;;;;;1.73;1.10;;;20.50;73.60;;;;;;4804128;28;20601;-63
2024/02/05 02:51:51;;;;;;;4.03;1.40;;;20.50;73.70;;;;;;4806272;28;20220;-62
2024/02/05 02:54:24;;;;;;;2.03;1.30;;;20.40;73.40;;;;;;4810512;28;20627;-65
2024/02/05 02:56:56;;;;;;;1.33;1.00;;;20.40;73.20;;;;;;4804434;28;20463;-64
2024/02/05 02:59:28;;;;;;;1.40;1.30;;;20.40;73.60;;;;;;4812442;28;20667;-65
2024/02/05 03:02:05;;;;;;;1.10;1.00;;;20.40;73.60;;;;;;4806780;28;20822;-66
2024/02/05 03:04:38;;;;;;;1.45;1.27;;;20.40;73.60;;;;;;4810495;28;20371;-66
2024/02/05 03:07:30;;;;;;;1.40;1.30;;;20.40;73.50;;;;;;4814319;28;20569;-64
2024/02/05 03:10:00;;;;;;;1.53;1.43;;;20.40;73.70;;;;;;4808102;28;20208;-66
2024/02/05 03:12:36;;;;;;;1.20;1.10;;;20.40;73.60;;;;;;4806572;28;20471;-61
2024/02/05 03:15:12;;;;;;;1.57;1.00;;;20.40;73.70;;;;;;4805965;28;25892;-65
2024/02/05 03:17:43;;;;;;;1.87;1.43;;;20.40;74.10;;;;;;4814303;28;20466;-67
2024/02/05 03:20:38;;;;;;;1.20;1.10;;;20.40;73.60;;;;;;4807493;28;20457;-65
2024/02/05 03:23:15;;;;;;;1.20;1.10;;;20.40;73.00;;;;;;4813316;28;21850;-64
2024/02/05 03:25:49;;;;;;;1.75;1.65;;;20.40;73.40;;;;;;4804439;28;21947;-64
2024/02/05 03:28:26;;;;;;;1.73;1.53;;;20.40;73.60;;;;;;4808191;28;20324;-66
2024/02/05 03:30:53;;;;;;;2.03;1.10;;;20.40;73.50;;;;;;4803889;28;20800;-61
2024/02/05 03:33:25;;;;;;;1.27;1.10;;;20.30;73.40;;;;;;4805300;28;20661;-61
2024/02/05 03:35:55;;;;;;;1.50;1.40;;;20.30;73.50;;;;;;4802115;28;21387;-64
2024/02/05 03:38:29;;;;;;;1.48;1.23;;;20.30;73.20;;;;;;4810937;28;21646;-64
2024/02/05 03:41:00;;;;;;;1.50;1.40;;;20.30;73.60;;;;;;4812009;28;20244;-65
2024/02/05 03:43:31;;;;;;;1.10;1.00;;;20.30;73.40;;;;;;4809665;28;20213;-64
2024/02/05 03:46:01;;;;;;;1.77;1.13;;;20.30;73.40;;;;;;4810585;28;20271;-63
2024/02/05 03:48:32;;;;;;;1.25;1.10;;;20.30;73.40;;;;;;4803677;28;21871;-64
2024/02/05 03:51:09;;;;;;;1.80;1.15;;;20.30;73.80;;;;;;4806150;28;20496;-65
2024/02/05 03:53:39;;;;;;;1.40;1.30;;;20.30;73.50;;;;;;4809494;28;20771;-65
2024/02/05 03:56:09;;;;;;;1.60;1.38;;;20.20;73.20;;;;;;4811621;28;20965;-66
2024/02/05 03:58:48;;;;;;;1.73;1.40;;;20.20;73.50;;;;;;4811157;28;20628;-64
2024/02/05 04:01:18;;;;;;;1.00;0.90;;;20.20;73.40;;;;;;4809635;28;20581;-63
2024/02/05 04:03:46;;;;;;;1.65;1.30;;;20.20;73.50;;;;;;4808514;28;20225;-67
2024/02/05 04:06:19;;;;;;;1.60;1.50;;;20.20;73.50;;;;;;4810572;28;20255;-64
2024/02/05 04:08:48;;;;;;;1.35;1.23;;;20.20;73.60;;;;;;4804977;28;20460;-64
2024/02/05 04:11:15;;;;;;;2.10;1.55;;;20.20;73.10;;;;;;4810117;28;20649;-65
2024/02/05 04:13:46;;;;;;;3.00;1.20;;;20.20;73.40;;;;;;4811909;28;20733;-63
2024/02/05 04:16:20;;;;;;;1.50;1.20;;;20.10;73.20;;;;;;4807615;28;20209;-64
2024/02/05 04:18:50;;;;;;;1.40;1.30;;;20.20;73.80;;;;;;4794181;28;20648;-65
2024/02/05 04:21:22;;;;;;;1.75;1.65;;;20.20;73.70;;;;;;4815292;28;20231;-65
2024/02/05 04:23:59;;;;;;;1.40;1.30;;;20.20;73.40;;;;;;4807229;28;20220;-66
2024/02/05 04:26:30;;;;;;;3.92;1.67;;;20.20;73.60;;;;;;4808068;28;20464;-65
2024/02/05 04:29:13;;;;;;;1.42;1.33;;;20.10;73.40;;;;;;4808478;28;26427;-63
2024/02/05 04:31:41;;;;;;;1.33;1.20;;;20.10;73.40;;;;;;4809580;28;20197;-66
2024/02/05 04:34:13;;;;;;;2.13;1.65;;;20.10;73.50;;;;;;4808288;28;20508;-66
2024/02/05 04:36:41;;;;;;;1.40;1.10;;;20.20;73.40;;;;;;4810625;28;20821;-64
2024/02/05 04:39:22;;;;;;;1.50;1.40;;;20.10;73.50;;;;;;4807645;28;20205;-66
2024/02/05 04:41:59;;;;;;;1.33;1.17;;;20.10;73.60;;;;;;4807817;28;20610;-66
2024/02/05 04:44:39;;;;;;;1.30;1.20;;;20.10;73.50;;;;;;4804205;28;20224;-65
2024/02/05 04:47:13;;;;;;;1.17;1.08;;;20.10;73.50;;;;;;4805711;28;20490;-64
2024/02/05 04:49:50;;;;;;;1.20;1.10;;;20.10;73.50;;;;;;4804337;28;20341;-67
2024/02/05 04:52:23;;;;;;;1.23;1.13;;;20.10;73.50;;;;;;4809290;28;20209;-64
2024/02/05 04:55:00;;;;;;;1.67;1.17;;;20.10;73.70;;;;;;4806317;28;20367;-64
2024/02/05 04:57:31;;;;;;;1.37;1.27;;;20.10;73.70;;;;;;4798217;28;20817;-64
2024/02/05 05:00:09;;;;;;;1.40;1.20;;;20.00;73.40;;;;;;4810993;28;21169;-63
2024/02/05 05:02:56;;;;;;;1.30;1.15;;;20.00;73.30;;;;;;4806075;28;20197;-66
2024/02/05 05:05:30;;;;;;;1.70;1.60;;;20.00;73.70;;;;;;4800404;28;20224;-66
2024/02/05 05:07:58;;;;;;;1.40;1.30;;;20.00;73.60;;;;;;4804753;28;20450;-65
2024/02/05 05:10:27;;;;;;;1.50;1.33;;;20.00;73.50;;;;;;4807512;28;21028;-62
2024/02/05 05:12:59;;;;;;;1.43;1.33;;;20.00;73.70;;;;;;4802594;28;20789;-66
2024/02/05 05:15:30;;;;;;;1.27;1.10;;;20.00;73.60;;;;;;4801458;28;20962;-63
2024/02/05 05:17:59;;;;;;;2.00;1.33;;;20.00;73.80;;;;;;4808756;28;20468;-65
2024/02/05 05:20:28;;;;;;;2.08;1.58;;;20.00;73.80;;;;;;4805602;28;20213;-66
2024/02/05 05:22:55;;;;;;;1.42;1.33;;;20.00;73.20;;;;;;4808511;28;20231;-65
2024/02/05 05:25:26;;;;;;;1.40;1.30;;;20.00;73.80;;;;;;4804703;28;20235;-64
2024/02/05 05:27:58;;;;;;;1.63;1.48;;;20.00;73.80;;;;;;4809916;28;20503;-64
2024/02/05 05:30:35;;;;;;;1.40;1.25;;;20.10;73.90;;;;;;4806822;28;20577;-64
2024/02/05 05:33:09;;;;;;;3.97;1.60;;;20.00;73.70;;;;;;4802072;28;20211;-65
2024/02/05 05:35:40;;;;;;;1.27;1.17;;;20.00;73.80;;;;;;4804618;28;21254;-63
2024/02/05 05:38:09;;;;;;;2.20;1.50;;;20.00;73.40;;;;;;4808074;28;20355;-66
2024/02/05 05:40:43;;;;;;;1.67;1.45;;;20.00;73.60;;;;;;4802791;28;26109;-64
2024/02/05 05:43:12;;;;;;;1.80;1.50;;;20.00;73.80;;;;;;4804804;28;20750;-64
2024/02/05 05:45:42;;;;;;;1.50;1.40;;;20.00;73.80;;;;;;4805755;28;25821;-62
2024/02/05 05:48:15;;;;;;;1.52;1.42;;;20.00;73.70;;;;;;4803371;28;20833;-65
2024/02/05 05:50:47;;;;;;;1.20;1.10;;;20.00;73.80;;;;;;4806606;28;21061;-63
2024/02/05 05:56:09;;;;;;;2.35;1.30;;;20.00;73.70;;;;;;4791694;28;20200;-64
2024/02/05 05:58:39;;;;;;;1.30;1.20;;;20.00;73.70;;;;;;4804314;28;20204;-65
2024/02/05 06:01:08;;;;;;;1.50;1.35;;;19.90;73.40;;;;;;4809657;28;20826;-65
2024/02/05 06:03:43;;;;;;;1.85;1.20;;;20.00;73.80;;;;;;4805181;28;20525;-66
2024/02/05 06:06:12;;;;;;;2.47;1.52;;;19.90;73.50;;;;;;4804383;28;20822;-65
2024/02/05 06:08:42;;;;;;;1.48;1.02;;;19.90;73.80;;;;;;4799360;28;20197;-64
2024/02/05 06:11:10;;;;;;;1.40;1.10;;;20.00;73.80;;;;;;4802553;28;20205;-66
2024/02/05 06:13:44;;;;;;;1.50;1.17;;;20.00;73.50;;;;;;4802609;28;26457;-62
2024/02/05 06:16:11;;;;;;;1.50;1.00;;;19.90;73.70;;;;;;4803920;28;20471;-62
2024/02/05 06:18:42;;;;;;;1.30;1.10;;;19.90;73.60;;;;;;4800167;28;20479;-64
2024/02/05 06:21:10;;;;;;;1.20;1.10;;;19.90;73.70;;;;;;4805713;28;20243;-64
2024/02/05 06:23:38;;;;;;;1.45;1.35;;;19.90;73.90;;;;;;4806576;28;20209;-63
2024/02/05 06:26:20;;;;;;;1.40;1.30;;;19.90;73.60;;;;;;4806711;28;20633;-63
2024/02/05 06:28:55;;;;;;;1.80;1.42;;;19.90;73.60;;;;;;4804717;28;20197;-64
2024/02/05 06:31:26;;;;;;;3.80;1.10;;;19.90;73.70;;;;;;4804124;28;20901;-66
2024/02/05 06:33:55;;;;;;;1.50;1.40;;;19.90;73.60;;;;;;4812219;28;20208;-66
2024/02/05 06:36:22;;;;;;;1.93;1.50;;;19.90;73.70;;;;;;4808608;28;20236;-65
2024/02/05 06:38:51;;;;;;;1.20;1.10;;;19.90;73.60;;;;;;4809032;28;20460;-64
2024/02/05 06:41:19;;;;;;;1.20;1.10;;;19.90;73.60;;;;;;4804585;28;26399;-63
2024/02/05 06:43:46;;;;;;;2.53;1.42;;;19.90;73.80;;;;;;4811119;28;25854;-64
2024/02/05 06:46:15;;;;;;;1.40;1.30;;;19.80;73.50;;;;;;4798506;28;26061;-64
2024/02/05 06:49:00;;;;;;;1.60;1.23;;;19.80;73.80;;;;;;4799376;28;20858;-65
2024/02/05 06:51:37;;;;;;;1.33;1.15;;;19.80;73.90;;;;;;4807323;28;20519;-65
2024/02/05 06:54:06;;;;;;;1.42;1.33;;;19.80;73.50;;;;;;4808676;28;20864;-64
2024/02/05 06:56:36;;;;;;;1.33;1.23;;;19.80;73.70;;;;;;4808535;28;21263;-64
2024/02/05 06:59:06;;;;;;;1.52;1.20;;;19.80;73.70;;;;;;4811039;28;20294;-64
2024/02/05 07:01:36;;;;;;;1.23;1.05;;;19.80;73.50;;;;;;4811018;28;20205;-65
2024/02/05 07:04:08;;;;;;;1.33;1.13;;;19.80;73.80;;;;;;4801538;28;26614;-63
2024/02/05 07:06:37;;;;;;;1.80;1.20;;;19.80;73.70;;;;;;4808634;28;20201;-65
2024/02/05 07:09:04;;;;;;;1.40;1.30;;;19.80;73.70;;;;;;4811218;28;20335;-65
2024/02/05 07:11:36;;;;;;;1.67;1.30;;;19.80;73.80;;;;;;4808147;28;20221;-65
2024/02/05 07:14:13;;;;;;;3.13;1.10;;;19.80;73.60;;;;;;4804236;28;20466;-64
2024/02/05 07:16:40;;;;;;;1.37;1.13;;;19.70;73.40;;;;;;4806858;28;20724;-63
2024/02/05 07:19:14;;;;;;;1.60;1.23;;;19.80;73.70;;;;;;4804126;28;20935;-64
2024/02/05 07:21:45;;;;;;;1.10;1.00;;;19.80;73.80;;;;;;4809023;28;20205;-65
2024/02/05 07:24:12;;;;;;;1.80;1.40;;;19.70;73.60;;;;;;4804738;28;20201;-66
2024/02/05 07:26:47;;;;;;;1.58;1.20;;;19.80;73.70;;;;;;4807425;28;20937;-66
2024/02/05 07:29:17;;;;;;;1.20;1.10;;;19.70;73.60;;;;;;4808420;28;20208;-65
2024/02/05 07:31:48;;;;;;;1.40;1.20;;;19.80;73.50;;;;;;4795965;28;20569;-65
2024/02/05 07:34:20;;;;;;;1.70;1.25;;;19.70;73.80;;;;;;4807518;28;20340;-65
2024/02/05 07:36:47;;;;;;;1.70;1.20;;;19.70;73.90;;;;;;4806001;28;20820;-64
2024/02/05 07:39:19;;;;;;;1.25;1.00;;;19.70;74.00;;;;;;4804483;28;25672;-65
2024/02/05 07:41:46;;;;;;;1.52;1.40;;;19.70;74.10;;;;;;4805618;28;20209;-64
2024/02/05 07:44:16;;;;;;;3.10;1.23;;;19.80;74.30;;;;;;4808969;28;20434;-65
2024/02/05 07:46:46;;;;;;;1.30;1.20;;;19.80;74.20;;;;;;4800876;28;20471;-64
2024/02/05 07:49:21;;;;;;;1.80;1.60;;;19.80;74.20;;;;;;4804309;28;20476;-66
2024/02/05 07:51:52;;;;;;;1.77;1.10;;;19.80;74.40;;;;;;4811920;28;20400;-65
2024/02/05 07:54:24;;;;;;;1.37;1.20;;;19.90;74.50;;;;;;4807094;28;20897;-66
2024/02/05 07:56:57;;;;;;;1.37;1.10;;;19.90;74.30;;;;;;4800072;28;20465;-65
2024/02/05 07:59:33;;;;;;;1.45;1.10;;;19.90;74.50;;;;;;4809187;28;20475;-64
2024/02/05 08:02:10;;;;;;;1.30;1.10;;;19.90;74.40;;;;;;4800730;28;21151;-63
2024/02/05 08:04:58;;;;;;;1.48;1.20;;;19.90;74.30;;;;;;4797148;28;20402;-65
2024/02/05 08:07:32;;;;;;;1.30;1.20;;;20.00;74.40;;;;;;4804971;28;21187;-66
2024/02/05 08:10:08;;;;;;;1.35;1.17;;;20.00;74.50;;;;;;4803712;28;21256;-65
2024/02/05 08:12:43;;;;;;;1.60;1.00;;;20.00;74.30;;;;;;4800468;28;20744;-65
2024/02/05 08:15:18;;;;;;;1.20;1.00;;;20.00;74.30;;;;;;4809518;28;20463;-64
2024/02/05 08:17:56;;;;;;;3.65;1.10;;;19.80;74.10;;;;;;4805860;28;20610;-66
2024/02/05 08:20:26;;;;;;;1.73;1.25;;;20.10;74.40;;;;;;4806638;28;20197;-64
2024/02/05 08:22:57;;;;;;;1.50;1.33;;;20.10;74.20;;;;;;4803516;28;21105;-64
2024/02/05 08:25:34;;;;;;;1.30;1.00;;;20.10;74.30;;;;;;4807018;28;20538;-65
2024/02/05 08:28:02;;;;;;;1.40;0.90;;;20.10;74.30;;;;;;4802042;28;20456;-66
2024/02/05 08:30:32;;;;;;;1.30;1.20;;;20.10;74.40;;;;;;4802446;28;25680;-65
2024/02/05 08:33:09;;;;;;;1.40;1.13;;;20.10;74.80;;;;;;4801540;28;20330;-67
2024/02/05 08:35:41;;;;;;;3.93;1.10;;;20.10;74.60;;;;;;4807984;28;20884;-66
2024/02/05 08:38:10;;;;;;;1.13;1.00;;;20.10;75.30;;;;;;4803444;28;20491;-63
2024/02/05 08:41:00;;;;;;;3.63;1.30;;;20.10;75.90;;;;;;4800351;28;21028;-65
2024/02/05 08:43:30;;;;;;;2.33;1.57;;;20.20;76.80;;;;;;4799521;28;21479;-64
2024/02/05 08:45:59;;;;;;;1.93;1.30;;;20.40;76.70;;;;;;4796244;28;20488;-66
2024/02/05 08:48:31;;;;;;;1.73;1.33;;;20.20;76.40;;;;;;4794059;28;20456;-65
2024/02/05 08:51:00;;;;;;;1.87;1.20;;;20.20;76.40;;;;;;4797363;28;25936;-66
2024/02/05 08:53:35;;;;;;;4.90;1.50;;;20.20;76.10;;;;;;4810895;28;20472;-65
2024/02/05 08:56:10;;;;;;;1.83;1.10;;;20.20;76.00;;;;;;4807091;28;20508;-65
2024/02/05 08:58:39;;;;;;;1.20;1.10;;;20.20;76.10;;;;;;4808276;28;20463;-69
2024/02/05 09:01:16;;;;;;;1.17;1.07;;;20.30;76.00;;;;;;4795503;28;20209;-66
2024/02/05 09:04:04;;;;;;;1.60;1.47;;;20.30;75.70;;;;;;4788849;28;20569;-67
2024/02/05 09:06:37;;;;;;;1.70;1.40;;;20.30;75.90;;;;;;4789846;28;21151;-67
2024/02/05 09:09:09;;;;;;;2.30;1.50;;;20.40;75.90;;;;;;4803500;28;26545;-69
2024/02/05 09:11:38;;;;;;;1.80;1.07;;;20.40;76.00;;;;;;4805936;28;20463;-70
2024/02/05 09:14:07;;;;;;;4.90;1.33;;;20.40;76.00;;;;;;4802164;28;20872;-68
2024/02/05 09:16:35;;;;;;;1.83;1.30;;;20.40;76.20;;;;;;4804372;28;26361;-67
2024/02/05 09:19:02;;;;;;;7.93;1.33;;;20.40;76.10;;;;;;4808124;28;20460;-64
2024/02/05 09:21:33;;;;;;;2.00;1.40;;;20.50;76.80;;;;;;4806244;28;25780;-65
2024/02/05 09:24:06;;;;;;;1.85;1.45;;;20.50;76.50;;;;;;4803715;28;20692;-63
2024/02/05 09:26:43;;;;;;;2.87;1.40;;;20.50;76.50;;;;;;4809284;28;20422;-62
2024/02/05 09:29:11;;;;;;;2.80;1.57;;;20.50;76.50;;;;;;4808542;28;20475;-65
2024/02/05 09:31:40;;;;;;;3.23;1.40;;;20.60;76.50;;;;;;4797048;28;21066;-64
2024/02/05 09:34:12;;;;;;;2.77;1.20;;;20.50;76.40;;;;;;4798342;28;26275;-64
2024/02/05 09:36:42;;;;;;;2.70;1.20;;;20.50;76.30;;;;;;4806087;28;21192;-64
2024/02/05 09:39:14;;;;;;;1.30;1.20;;;20.50;76.00;;;;;;4808408;28;20463;-64
2024/02/05 09:41:50;;;;;;;2.33;1.50;;;20.50;76.00;;;;;;4804260;28;21026;-65
2024/02/05 09:44:22;;;;;;;3.55;1.70;;;20.50;76.00;;;;;;4804872;28;21225;-62
2024/02/05 09:47:01;;;;;;;4.13;1.50;;;20.50;75.90;;;;;;4795296;28;20236;-62
2024/02/05 09:49:27;;;;;;;1.70;1.10;;;20.50;75.90;;;;;;4796030;28;21724;-62
2024/02/05 09:52:07;;;;;;;2.23;1.10;;;20.50;75.70;;;;;;4802214;28;20468;-63
2024/02/05 09:54:40;;;;;;;8.35;1.88;;;20.50;75.70;;;;;;4805145;28;21277;-64
2024/02/05 09:57:30;;;;;;;10.43;1.30;;;20.70;76.10;;;;;;4804708;28;20290;-64
2024/02/05 09:59:57;;;;;;;3.57;1.43;;;20.60;76.00;;;;;;4796632;28;20460;-64
2024/02/05 10:02:28;;;;;;;3.53;1.10;;;20.60;75.90;;;;;;4799782;28;20456;-63
2024/02/05 10:05:01;;;;;;;4.83;1.60;;;20.60;75.90;;;;;;4807160;28;21356;-62
2024/02/05 10:07:35;;;;;;;3.30;1.10;;;20.60;76.00;;;;;;4809361;28;20494;-65
2024/02/05 10:10:18;;;;;;;4.07;1.20;;;20.40;75.80;;;;;;4800296;28;21116;-63
2024/02/05 10:12:49;;;;;;;2.70;1.20;;;20.50;75.70;;;;;;4806264;28;20983;-61
2024/02/05 10:15:30;;;;;;;1.83;1.30;;;20.60;75.80;;;;;;4808976;28;21027;-65
2024/02/05 10:18:00;;;;;;;2.27;1.20;;;20.60;75.80;;;;;;4807364;28;20499;-64
2024/02/05 10:20:33;;;;;;;2.77;1.40;;;20.60;75.60;;;;;;4808103;28;20686;-61
2024/02/05 10:23:00;;;;;;;1.97;1.33;;;20.50;75.40;;;;;;4812140;28;20460;-64
2024/02/05 10:25:27;;;;;;;2.93;1.70;;;20.60;75.60;;;;;;4792150;28;20592;-65
2024/02/05 10:28:10;;;;;;;2.30;1.17;;;20.60;75.50;;;;;;4801154;28;20480;-64
2024/02/05 10:30:38;;;;;;;2.87;1.30;;;20.60;75.50;;;;;;4799331;28;20545;-63
2024/02/05 10:33:07;;;;;;;2.93;1.40;;;20.80;75.70;;;;;;4806332;28;20464;-64
2024/02/05 10:38:22;;;;;;;4.43;1.37;;;20.60;76.10;;;;;;4807112;28;21063;-65
2024/02/05 10:40:54;;;;;;;2.30;1.30;;;20.60;75.60;;;;;;4809431;28;20490;-64
2024/02/05 10:43:23;;;;;;;3.17;1.50;;;20.60;75.80;;;;;;4807130;28;20460;-64
2024/02/05 10:46:07;;;;;;;5.43;3.63;;;20.60;75.80;;;;;;4805444;28;20582;-64
2024/02/05 10:48:41;;;;;;;3.47;1.80;;;20.60;75.70;;;;;;4807644;28;20755;-65
2024/02/05 10:51:18;;;;;;;3.57;1.50;;;20.60;75.10;;;;;;4801068;28;21601;-65
2024/02/05 10:54:07;;;;;;;3.10;1.70;;;20.60;75.40;;;;;;4808623;28;21069;-65
2024/02/05 10:56:43;;;;;;;3.53;1.87;;;20.60;75.30;;;;;;4800986;28;21297;-63
2024/02/05 10:59:18;;;;;;;1.93;1.47;;;20.70;75.40;;;;;;4806361;28;20553;-65
2024/02/05 11:01:58;;;;;;;2.73;1.33;;;20.70;75.20;;;;;;4802174;28;20582;-64
2024/02/05 11:04:27;;;;;;;2.72;1.83;;;20.80;75.10;;;;;;4802667;28;20460;-64
2024/02/05 11:07:12;;;;;;;2.00;1.40;;;20.70;75.00;;;;;;4810191;28;20541;-64
2024/02/05 11:09:47;;;;;;;3.13;1.55;;;20.70;74.90;;;;;;4810242;28;20212;-65
2024/02/05 11:12:16;;;;;;;4.25;1.90;;;20.70;75.00;;;;;;4806634;28;20792;-64
2024/02/05 11:14:56;;;;;;;4.77;2.40;;;20.70;74.90;;;;;;4810797;28;20774;-65
2024/02/05 11:17:28;;;;;;;2.67;1.50;;;20.70;74.70;;;;;;4814463;28;21057;-65
2024/02/05 11:19:59;;;;;;;2.38;1.48;;;20.70;74.40;;;;;;4813022;28;20212;-64
2024/02/05 11:22:36;;;;;;;2.40;2.10;;;20.70;75.10;;;;;;4810604;28;20741;-61
2024/02/05 11:25:06;;;;;;;4.67;1.80;;;20.80;74.40;;;;;;4810732;28;20905;-65
2024/02/05 11:27:39;;;;;;;4.40;2.07;;;20.70;74.20;;;;;;4808554;28;26245;-63
2024/02/05 11:30:17;;;;;;;2.27;1.70;;;20.70;74.20;;;;;;4807580;28;20461;-61
2024/02/05 11:32:45;;;;;;;4.43;1.60;;;20.70;74.20;;;;;;4800683;28;20463;-65
2024/02/05 11:35:29;;;;;;;3.53;1.70;;;20.70;74.20;;;;;;4808982;28;20979;-63
2024/02/05 11:38:08;;;;;;;2.10;1.67;;;20.80;74.40;;;;;;4811316;28;20640;-62
2024/02/05 11:40:46;;;;;;;4.70;1.83;;;20.80;74.40;;;;;;4808473;28;20464;-65
2024/02/05 11:43:25;;;;;;;5.10;1.97;;;20.80;74.30;;;;;;4799110;28;20590;-65
2024/02/05 11:48:52;;;;;;;3.83;2.00;;;20.80;74.40;;;;;;4808015;28;20464;-64
2024/02/05 11:51:24;;;;;;;4.13;1.60;;;20.80;74.40;;;;;;4797601;28;20566;-64
2024/02/05 11:53:59;;;;;;;3.27;1.47;;;20.80;74.50;;;;;;4792959;28;21212;-65
2024/02/05 11:56:26;;;;;;;2.40;1.63;;;20.90;74.60;;;;;;4807469;28;20554;-64
2024/02/05 11:58:57;;;;;;;2.83;1.80;;;20.80;74.40;;;;;;4807830;28;20463;-64
2024/02/05 12:01:38;;;;;;;2.90;1.77;;;20.80;74.30;;;;;;4803409;28;20194;-63
2024/02/05 12:04:08;;;;;;;2.77;1.53;;;20.80;74.30;;;;;;4801827;28;20467;-64
2024/02/05 12:06:38;;;;;;;2.33;1.90;;;20.80;74.20;;;;;;4799985;28;20566;-64
2024/02/05 12:09:06;;;;;;;3.20;1.87;;;20.80;74.20;;;;;;4805348;28;21414;-63
2024/02/05 12:11:37;;;;;;;3.30;2.10;;;20.80;74.10;;;;;;4805401;28;20457;-65
2024/02/05 12:14:07;;;;;;;3.67;1.90;;;20.80;74.00;;;;;;4800285;28;20464;-63
2024/02/05 12:16:42;;;;;;;3.50;1.40;;;20.80;74.00;;;;;;4798504;28;20208;-64
2024/02/05 12:19:19;;;;;;;4.50;2.33;;;20.80;74.00;;;;;;4804452;28;20587;-65
2024/02/05 12:21:50;;;;;;;3.43;1.60;;;20.60;73.60;;;;;;4801277;28;20469;-63
2024/02/05 12:24:20;;;;;;;5.67;1.93;;;20.80;73.90;;;;;;4806347;28;21954;-64
2024/02/05 12:26:54;;;;;;;2.33;1.60;;;20.80;73.80;;;;;;4805107;28;21489;-64
2024/02/05 12:29:32;;;;;;;4.45;1.60;;;20.80;73.80;;;;;;4808355;28;20459;-63
2024/02/05 12:32:08;;;;;;;9.13;2.03;;;20.80;73.70;;;;;;4803593;28;26690;-64
2024/02/05 12:34:38;;;;;;;2.13;1.57;;;20.80;73.70;;;;;;4806180;28;21081;-62
2024/02/05 12:37:15;;;;;;;4.03;1.40;;;20.80;73.70;;;;;;4809544;28;20480;-64
2024/02/05 12:39:51;;;;;;;2.00;1.70;;;20.80;73.60;;;;;;4797348;28;21104;-62
2024/02/05 12:42:17;;;;;;;5.47;1.90;;;20.80;73.60;;;;;;4805932;28;20475;-65
2024/02/05 12:44:53;;;;;;;3.87;1.90;;;20.80;73.50;;;;;;4802111;28;24885;-64
2024/02/05 12:47:36;;;;;;;2.80;2.00;;;20.80;73.60;;;;;;4798918;28;20481;-63
2024/02/05 12:50:06;;;;;;;2.47;1.77;;;20.80;73.40;;;;;;4810999;28;21235;-63
2024/02/05 12:52:43;;;;;;;2.70;1.70;;;20.80;73.40;;;;;;4807358;28;20459;-64
2024/02/05 12:55:10;;;;;;;2.07;1.70;;;20.60;73.10;;;;;;4806528;28;20787;-62
2024/02/05 12:57:37;;;;;;;3.80;1.70;;;20.80;73.50;;;;;;4810878;28;21151;-65
2024/02/05 13:00:12;;;;;;;5.03;2.10;;;20.80;73.50;;;;;;4806255;28;20473;-62
2024/02/05 13:02:43;;;;;;;3.13;1.93;;;20.90;73.80;;;;;;4812676;28;20464;-64
2024/02/05 13:05:17;;;;;;;3.57;1.50;;;20.90;73.90;;;;;;4812957;28;20908;-63
2024/02/05 13:08:00;;;;;;;2.55;1.50;;;20.90;74.10;;;;;;4809930;28;20906;-67
2024/02/05 13:10:32;;;;;;;2.47;1.73;;;20.90;74.00;;;;;;4789870;28;20407;-66
2024/02/05 13:13:03;;;;;;;4.00;1.80;;;20.90;74.20;;;;;;4810917;28;20267;-66
2024/02/05 13:15:39;;;;;;;5.03;1.47;;;20.80;74.00;;;;;;4804410;28;20606;-65
2024/02/05 13:18:14;;;;;;;4.23;1.40;;;20.90;74.20;;;;;;4809492;28;20468;-67
2024/02/05 13:20:43;;;;;;;2.73;1.40;;;20.90;74.10;;;;;;4808530;28;20563;-66
2024/02/05 13:23:22;;;;;;;2.07;1.23;;;20.90;74.10;;;;;;4807654;28;20467;-67
2024/02/05 13:25:53;;;;;;;2.67;2.00;;;20.90;74.10;;;;;;4807541;28;20472;-65
2024/02/05 13:28:28;;;;;;;4.30;1.97;;;21.00;74.20;;;;;;4800890;28;26337;-64